Time;durP1;ratioP1;P1;durP2;ratioP2;P2;SDS_P1;SDS_P2;PMS_P1;PMS_P2;Temp;Humidity;BMP_temperature;BMP_pressure;BME280_temperature;BME280_humidity;BME280_pressure;Samples;Min_cycle;Max_cycle;Signal;HPM_P1;HPM_P2
2022/03/20 00:00:35;;;;;;;8.77;3.50;;;7.00;99.90;;;;;;6282430;22;20018;-90
2022/03/20 00:03:07;;;;;;;7.32;3.60;;;7.00;99.90;;;;;;6282088;22;20019;-90
2022/03/20 00:05:35;;;;;;;10.10;3.88;;;6.90;99.90;;;;;;6232087;22;20047;-89
2022/03/20 00:08:02;;;;;;;4.57;3.63;;;7.00;99.90;;;;;;6309674;22;20072;-90
2022/03/20 00:10:30;;;;;;;9.50;3.78;;;7.00;99.90;;;;;;6282143;22;20020;-90
2022/03/20 00:12:56;;;;;;;6.70;3.80;;;6.90;99.90;;;;;;6256019;22;20057;-90
2022/03/20 00:15:23;;;;;;;8.18;3.90;;;6.80;99.90;;;;;;6282243;22;20018;-90
2022/03/20 00:17:53;;;;;;;7.15;3.63;;;6.70;99.90;;;;;;6281377;22;20354;-90
2022/03/20 00:20:20;;;;;;;9.50;3.80;;;6.80;99.90;;;;;;6281830;22;20073;-90
2022/03/20 00:22:47;;;;;;;10.05;3.30;;;7.20;99.90;;;;;;6281154;22;20011;-90
2022/03/20 00:25:14;;;;;;;5.47;3.60;;;6.80;99.90;;;;;;6257243;22;20015;-91
2022/03/20 00:27:42;;;;;;;7.18;3.47;;;6.80;99.90;;;;;;6281517;22;20023;-90
2022/03/20 00:30:11;;;;;;;9.82;4.57;;;6.90;99.90;;;;;;6281908;22;20023;-89
2022/03/20 00:32:38;;;;;;;6.32;3.75;;;6.70;99.90;;;;;;6308242;22;20435;-89
2022/03/20 00:35:05;;;;;;;7.85;4.20;;;6.70;99.90;;;;;;6281407;22;20098;-89
2022/03/20 00:37:32;;;;;;;7.28;4.40;;;6.60;99.90;;;;;;6281429;22;20523;-89
2022/03/20 00:39:59;;;;;;;9.95;4.45;;;6.50;99.90;;;;;;6281560;22;20026;-90
2022/03/20 00:42:26;;;;;;;8.63;4.10;;;6.60;99.90;;;;;;6281335;22;20339;-89
2022/03/20 00:44:53;;;;;;;7.03;4.40;;;6.60;99.90;;;;;;6281778;22;20026;-89
2022/03/20 00:47:20;;;;;;;9.38;3.50;;;6.50;99.90;;;;;;6309046;22;20098;-89
2022/03/20 00:49:47;;;;;;;8.45;4.18;;;6.60;99.90;;;;;;6308457;22;20038;-89
2022/03/20 00:52:14;;;;;;;14.05;3.33;;;6.60;99.90;;;;;;6281112;22;20446;-89
2022/03/20 00:54:41;;;;;;;13.63;4.18;;;6.50;99.90;;;;;;6308762;22;20015;-89
2022/03/20 00:57:08;;;;;;;7.05;4.38;;;6.50;99.90;;;;;;6282101;22;20134;-89
2022/03/20 00:59:35;;;;;;;14.38;4.20;;;6.50;99.90;;;;;;6308722;22;20427;-89
2022/03/20 01:02:04;;;;;;;6.47;4.07;;;6.50;99.90;;;;;;6308445;22;20465;-89
2022/03/20 01:04:32;;;;;;;11.27;4.32;;;6.40;99.90;;;;;;6281458;22;20026;-89
2022/03/20 01:07:00;;;;;;;10.32;4.97;;;6.50;99.90;;;;;;6308879;22;20323;-89
2022/03/20 01:09:27;;;;;;;8.57;3.80;;;6.50;99.90;;;;;;6281188;22;20019;-89
2022/03/20 01:11:55;;;;;;;7.90;4.43;;;6.60;99.90;;;;;;6281706;22;20388;-90
2022/03/20 01:14:23;;;;;;;8.82;3.97;;;6.40;99.90;;;;;;6281158;22;20015;-89
2022/03/20 01:16:50;;;;;;;9.10;4.47;;;6.60;99.90;;;;;;6282424;22;20051;-90
2022/03/20 01:19:17;;;;;;;15.70;5.90;;;6.50;99.90;;;;;;6281865;22;20106;-88
2022/03/20 01:21:44;;;;;;;11.32;5.05;;;6.40;99.90;;;;;;6281254;22;20019;-89
2022/03/20 01:24:11;;;;;;;11.55;5.28;;;6.30;99.90;;;;;;6255815;22;20047;-89
2022/03/20 01:26:39;;;;;;;6.72;4.30;;;6.30;99.90;;;;;;6282059;22;20023;-89
2022/03/20 01:29:06;;;;;;;11.13;5.45;;;6.50;99.90;;;;;;6281270;22;20015;-90
2022/03/20 01:31:36;;;;;;;8.85;3.63;;;6.50;99.90;;;;;;6281467;22;20438;-88
2022/03/20 01:34:03;;;;;;;9.68;5.50;;;6.70;99.90;;;;;;6281386;22;20122;-89
2022/03/20 01:36:31;;;;;;;9.43;4.15;;;6.60;99.90;;;;;;6281161;22;20435;-89
2022/03/20 01:38:58;;;;;;;11.23;4.47;;;6.50;99.90;;;;;;6281246;22;20450;-89
2022/03/20 01:41:26;;;;;;;7.88;4.35;;;6.40;99.90;;;;;;6280713;22;20077;-89
2022/03/20 01:44:02;;;;;;;11.75;4.63;;;6.30;99.90;;;;;;6255531;22;20312;-88
2022/03/20 01:46:33;;;;;;;12.13;4.93;;;6.30;99.90;;;;;;6281279;22;20026;-89
2022/03/20 01:49:00;;;;;;;8.52;4.68;;;6.40;99.90;;;;;;6281238;22;20025;-89
2022/03/20 01:54:13;;;;;;;10.05;4.75;;;6.40;99.90;;;;;;6280994;22;20026;-89
2022/03/20 01:56:45;;;;;;;15.35;3.85;;;6.40;99.90;;;;;;6281299;22;20331;-89
2022/03/20 01:59:14;;;;;;;9.07;4.93;;;6.30;99.90;;;;;;6306933;22;20037;-90
2022/03/20 02:01:41;;;;;;;11.00;4.35;;;6.20;99.90;;;;;;6280576;22;20464;-88
2022/03/20 02:04:13;;;;;;;8.90;4.93;;;6.10;99.90;;;;;;6281217;22;20023;-89
2022/03/20 02:06:41;;;;;;;7.43;3.83;;;6.10;99.90;;;;;;6256163;22;20106;-90
2022/03/20 02:09:12;;;;;;;6.15;3.55;;;6.20;99.90;;;;;;6280759;22;20023;-89
2022/03/20 02:11:40;;;;;;;11.55;3.42;;;6.20;99.90;;;;;;6280865;22;20023;-89
2022/03/20 02:14:09;;;;;;;10.90;4.47;;;6.20;99.90;;;;;;6307665;22;20019;-89
2022/03/20 02:16:38;;;;;;;9.85;4.65;;;6.20;99.90;;;;;;6280956;22;20415;-89
2022/03/20 02:19:13;;;;;;;6.78;3.97;;;6.00;99.90;;;;;;6281547;22;20012;-89
2022/03/20 02:21:45;;;;;;;7.85;3.63;;;6.00;99.90;;;;;;6281331;22;20018;-89
2022/03/20 02:24:40;;;;;;;13.23;4.35;;;6.00;99.90;;;;;;6307845;22;20026;-88
2022/03/20 02:27:21;;;;;;;7.40;4.32;;;6.00;99.90;;;;;;6280716;22;20323;-88
2022/03/20 02:29:50;;;;;;;12.77;4.15;;;5.90;99.90;;;;;;6307731;22;20015;-89
2022/03/20 02:32:19;;;;;;;10.30;4.65;;;5.80;99.90;;;;;;6280280;22;20050;-88
2022/03/20 02:34:49;;;;;;;9.57;5.40;;;5.90;99.90;;;;;;6280639;22;20015;-89
2022/03/20 02:37:21;;;;;;;17.08;5.68;;;5.80;99.90;;;;;;6281705;22;20022;-88
2022/03/20 02:39:50;;;;;;;11.13;4.60;;;5.80;99.90;;;;;;6280527;22;20019;-89
2022/03/20 02:42:18;;;;;;;9.82;4.80;;;5.80;99.90;;;;;;6280362;22;20022;-89
2022/03/20 02:45:03;;;;;;;14.10;5.55;;;5.80;99.90;;;;;;6307560;22;20011;-89
2022/03/20 02:47:32;;;;;;;13.60;5.55;;;5.70;99.90;;;;;;6281495;22;20015;-89
2022/03/20 02:50:03;;;;;;;8.75;5.45;;;5.70;99.90;;;;;;6255173;22;20051;-88
2022/03/20 02:52:46;;;;;;;6.93;4.15;;;5.60;99.90;;;;;;6308051;22;20011;-89
2022/03/20 02:55:21;;;;;;;15.33;5.40;;;5.80;99.90;;;;;;6280499;22;20015;-89
2022/03/20 02:57:48;;;;;;;10.27;5.90;;;5.80;99.90;;;;;;6280710;22;20106;-89
2022/03/20 03:00:21;;;;;;;11.93;6.65;;;5.70;99.90;;;;;;6280497;22;20016;-89
2022/03/20 03:02:50;;;;;;;14.10;7.13;;;5.60;99.90;;;;;;6307838;22;20035;-89
2022/03/20 03:05:19;;;;;;;10.88;5.63;;;5.50;99.90;;;;;;6254912;22;20114;-89
2022/03/20 03:13:25;;;;;;;11.48;6.50;;;5.60;99.90;;;;;;6280565;22;20015;-89
2022/03/20 03:15:55;;;;;;;11.13;5.53;;;5.50;99.90;;;;;;6282333;22;20035;-89
2022/03/20 03:18:22;;;;;;;10.48;5.68;;;5.50;99.90;;;;;;6282781;22;20046;-88
2022/03/20 03:20:50;;;;;;;12.05;7.25;;;5.70;99.90;;;;;;6309404;22;20016;-89
2022/03/20 03:23:18;;;;;;;17.50;6.72;;;5.50;99.90;;;;;;6282397;22;20015;-88
2022/03/20 03:25:45;;;;;;;11.18;6.50;;;5.50;99.90;;;;;;6309452;22;20019;-88
2022/03/20 03:28:14;;;;;;;15.70;7.70;;;5.50;99.90;;;;;;6257606;22;20422;-89
2022/03/20 03:30:46;;;;;;;11.63;6.25;;;5.40;99.90;;;;;;6309675;22;20387;-89
2022/03/20 03:33:17;;;;;;;11.38;6.50;;;5.40;99.90;;;;;;6282177;22;20401;-88
2022/03/20 03:35:57;;;;;;;14.07;6.65;;;5.40;99.90;;;;;;6258410;22;20103;-89
2022/03/20 03:38:27;;;;;;;12.80;6.65;;;5.40;99.90;;;;;;6282476;22;20019;-88
2022/03/20 03:40:56;;;;;;;13.50;6.38;;;5.40;99.90;;;;;;6309300;22;20398;-88
2022/03/20 03:43:24;;;;;;;17.58;7.53;;;5.60;99.90;;;;;;6256122;22;20354;-89
2022/03/20 03:45:56;;;;;;;12.70;6.75;;;5.40;99.90;;;;;;6282129;22;20025;-88
2022/03/20 03:48:24;;;;;;;13.57;6.70;;;5.30;99.90;;;;;;6257013;22;20110;-88
2022/03/20 03:50:53;;;;;;;16.00;6.25;;;5.30;99.90;;;;;;6309304;22;20019;-89
2022/03/20 03:53:20;;;;;;;12.05;6.75;;;5.60;99.90;;;;;;6281822;22;20177;-89
2022/03/20 03:55:47;;;;;;;16.45;7.38;;;5.40;99.90;;;;;;6309310;22;20117;-89
2022/03/20 03:58:14;;;;;;;13.95;6.82;;;5.50;99.90;;;;;;6310008;22;20047;-88
2022/03/20 04:00:43;;;;;;;12.55;5.78;;;5.40;99.90;;;;;;6281646;22;20072;-89
2022/03/20 04:03:12;;;;;;;20.45;6.60;;;5.30;99.90;;;;;;6257362;22;20043;-89
2022/03/20 04:05:40;;;;;;;15.68;7.15;;;5.20;99.90;;;;;;6281798;22;20094;-89
2022/03/20 04:08:09;;;;;;;11.85;6.53;;;5.10;99.90;;;;;;6282426;22;20026;-89
2022/03/20 04:10:35;;;;;;;12.88;7.57;;;5.20;99.90;;;;;;6282105;22;20501;-89
2022/03/20 04:13:03;;;;;;;11.75;7.00;;;5.10;99.90;;;;;;6281883;22;20054;-88
2022/03/20 04:15:32;;;;;;;12.40;6.70;;;5.10;99.90;;;;;;6281762;22;20346;-88
2022/03/20 04:18:01;;;;;;;13.93;7.45;;;5.20;99.90;;;;;;6282717;22;20022;-89
2022/03/20 04:20:28;;;;;;;14.27;7.22;;;5.00;99.90;;;;;;6282053;22;20085;-89
2022/03/20 04:25:42;;;;;;;23.08;8.00;;;5.10;99.90;;;;;;6281406;22;20019;-88
2022/03/20 04:28:10;;;;;;;18.35;8.27;;;5.10;99.90;;;;;;6281976;22;20042;-88
2022/03/20 04:30:37;;;;;;;17.13;7.45;;;5.00;99.90;;;;;;6308875;22;20019;-88
2022/03/20 04:33:04;;;;;;;15.75;8.88;;;5.00;99.90;;;;;;6280982;22;20461;-88
2022/03/20 04:35:31;;;;;;;15.50;8.45;;;5.00;99.90;;;;;;6281610;22;20024;-88
2022/03/20 04:38:02;;;;;;;15.77;8.68;;;5.00;99.90;;;;;;6281517;22;20019;-89
2022/03/20 04:40:29;;;;;;;13.07;7.45;;;5.00;99.90;;;;;;6308912;22;20497;-89
2022/03/20 04:42:56;;;;;;;15.90;8.07;;;5.30;99.90;;;;;;6280992;22;20446;-88
2022/03/20 04:45:24;;;;;;;16.05;8.13;;;5.30;99.90;;;;;;6281824;22;20022;-89
2022/03/20 04:58:52;;;;;;;14.40;7.95;;;4.80;99.90;;;;;;6281470;22;20098;-88
2022/03/20 05:01:20;;;;;;;17.48;8.13;;;4.80;99.90;;;;;;6281014;22;20110;-89
2022/03/20 05:03:48;;;;;;;17.20;8.10;;;4.70;99.90;;;;;;6307776;22;20015;-88
2022/03/20 05:06:14;;;;;;;14.55;7.90;;;4.60;99.90;;;;;;6256572;22;20069;-89
2022/03/20 05:08:42;;;;;;;19.60;7.40;;;4.70;99.90;;;;;;6281676;22;20398;-88
2022/03/20 05:13:54;;;;;;;10.27;6.32;;;4.80;99.90;;;;;;6282283;22;20018;-89
2022/03/20 05:16:21;;;;;;;15.43;8.00;;;5.00;99.90;;;;;;6281797;22;20066;-89
2022/03/20 05:18:48;;;;;;;16.77;7.82;;;4.70;99.90;;;;;;6281942;22;20016;-88
2022/03/20 05:21:18;;;;;;;13.00;8.05;;;4.70;99.90;;;;;;6282087;22;20098;-89
2022/03/20 05:23:45;;;;;;;14.00;7.72;;;4.80;99.90;;;;;;6281156;22;20019;-89
2022/03/20 05:26:12;;;;;;;17.90;9.13;;;4.80;99.90;;;;;;6308869;22;20439;-88
2022/03/20 05:28:39;;;;;;;19.52;9.23;;;4.80;99.90;;;;;;6230977;22;20023;-89
2022/03/20 05:31:07;;;;;;;19.73;7.85;;;4.70;99.90;;;;;;6307379;22;20534;-88
2022/03/20 05:33:35;;;;;;;17.42;8.50;;;4.60;99.90;;;;;;6280562;22;20072;-89
2022/03/20 05:36:02;;;;;;;11.00;6.50;;;4.90;99.90;;;;;;6281175;22;20372;-89
2022/03/20 05:38:31;;;;;;;20.27;8.38;;;5.00;99.90;;;;;;6281305;22;20110;-89
2022/03/20 05:43:44;;;;;;;17.15;8.55;;;4.80;99.90;;;;;;6306637;22;20102;-88
2022/03/20 05:46:11;;;;;;;16.45;8.93;;;4.70;99.90;;;;;;6277400;22;20027;-88
2022/03/20 05:48:38;;;;;;;16.58;7.88;;;4.50;99.90;;;;;;6272334;22;20096;-88
2022/03/20 05:51:06;;;;;;;18.20;8.07;;;4.80;99.90;;;;;;6306614;22;20015;-88
2022/03/20 05:53:33;;;;;;;14.98;7.25;;;5.10;99.90;;;;;;6280637;22;20080;-88
2022/03/20 05:58:46;;;;;;;18.90;8.98;;;4.50;99.90;;;;;;6308360;22;20045;-88
2022/03/20 06:01:13;;;;;;;20.58;10.00;;;4.70;99.90;;;;;;6308151;22;20012;-89
2022/03/20 06:03:40;;;;;;;16.20;9.15;;;4.50;99.90;;;;;;6255464;22;20019;-88
2022/03/20 06:06:08;;;;;;;23.20;9.68;;;4.40;99.90;;;;;;6308369;22;20019;-89
2022/03/20 06:08:35;;;;;;;16.67;10.32;;;4.50;99.90;;;;;;6280637;22;20026;-88
2022/03/20 06:11:03;;;;;;;16.35;9.35;;;4.40;99.90;;;;;;6281028;22;20442;-88
2022/03/20 06:13:31;;;;;;;17.98;8.90;;;4.50;99.90;;;;;;6280435;22;20026;-88
2022/03/20 06:15:59;;;;;;;15.63;9.10;;;4.80;99.90;;;;;;6281492;22;20015;-88
2022/03/20 06:18:26;;;;;;;16.58;7.95;;;4.70;99.90;;;;;;6281282;22;20016;-87
2022/03/20 06:20:54;;;;;;;20.17;8.70;;;4.70;99.90;;;;;;6308528;22;20015;-88
2022/03/20 06:23:22;;;;;;;20.83;9.40;;;4.70;99.90;;;;;;6279865;22;20019;-88
2022/03/20 06:25:52;;;;;;;18.58;10.30;;;4.80;99.90;;;;;;6281872;22;20019;-88
2022/03/20 06:28:20;;;;;;;23.02;9.45;;;4.70;99.90;;;;;;6281126;22;20106;-89
2022/03/20 06:30:47;;;;;;;16.52;8.75;;;4.60;99.90;;;;;;6308441;22;20015;-88
2022/03/20 06:33:15;;;;;;;16.67;8.95;;;4.50;99.90;;;;;;6280886;22;20427;-88
2022/03/20 06:35:42;;;;;;;16.75;8.23;;;4.60;99.90;;;;;;6308248;22;20011;-88
2022/03/20 06:38:14;;;;;;;16.08;9.88;;;4.70;99.90;;;;;;6280410;22;20443;-88
2022/03/20 06:40:41;;;;;;;23.40;10.25;;;4.70;99.90;;;;;;6281108;22;20435;-88
2022/03/20 06:43:09;;;;;;;23.05;11.73;;;4.60;99.90;;;;;;6307847;22;20023;-88
2022/03/20 06:45:36;;;;;;;19.20;9.27;;;4.60;99.90;;;;;;6281046;22;20078;-88
2022/03/20 06:48:04;;;;;;;17.70;10.23;;;4.80;99.90;;;;;;6284141;22;20030;-88
2022/03/20 06:50:32;;;;;;;21.92;10.70;;;4.60;99.90;;;;;;6260238;22;20023;-89
2022/03/20 06:53:03;;;;;;;21.35;9.65;;;4.80;99.90;;;;;;6257282;22;20461;-89
2022/03/20 06:55:31;;;;;;;21.45;10.30;;;4.80;99.90;;;;;;6283448;22;20027;-89
2022/03/20 06:57:59;;;;;;;20.65;9.73;;;4.60;99.90;;;;;;6257240;22;20113;-88
2022/03/20 07:00:31;;;;;;;17.25;8.88;;;4.70;99.90;;;;;;6284461;22;20022;-89
2022/03/20 07:03:03;;;;;;;21.42;11.00;;;4.70;99.90;;;;;;6284666;22;20054;-89
2022/03/20 07:05:31;;;;;;;18.45;10.52;;;4.70;99.90;;;;;;6286522;22;20345;-89
2022/03/20 07:08:03;;;;;;;20.10;10.25;;;4.70;99.90;;;;;;6285675;22;20064;-89
2022/03/20 07:10:30;;;;;;;23.55;10.48;;;4.80;99.90;;;;;;6289843;22;20090;-91
2022/03/20 07:15:45;;;;;;;27.95;10.98;;;4.70;99.90;;;;;;6283793;22;20327;-89
2022/03/20 07:18:15;;;;;;;26.92;10.27;;;4.90;99.90;;;;;;6283126;22;20434;-90
2022/03/20 07:20:45;;;;;;;21.75;12.80;;;4.90;99.90;;;;;;6310678;22;20061;-89
2022/03/20 07:23:16;;;;;;;19.23;10.90;;;4.80;99.90;;;;;;6282427;22;20021;-89
2022/03/20 07:31:15;;;;;;;23.50;9.60;;;4.70;99.90;;;;;;6311816;22;20039;-89
2022/03/20 07:33:42;;;;;;;23.40;10.82;;;5.00;99.90;;;;;;6284452;22;20480;-88
2022/03/20 07:36:10;;;;;;;18.33;10.07;;;4.80;99.90;;;;;;6259192;22;20084;-92
2022/03/20 07:38:38;;;;;;;28.85;11.90;;;4.70;99.90;;;;;;6312240;22;20015;-89
2022/03/20 07:41:06;;;;;;;20.60;11.15;;;4.70;99.90;;;;;;6285031;22;20019;-89
2022/03/20 07:43:33;;;;;;;15.88;9.65;;;4.70;99.90;;;;;;6284980;22;20022;-90
2022/03/20 07:46:00;;;;;;;18.25;10.85;;;5.00;99.90;;;;;;6312346;22;20007;-89
2022/03/20 07:48:27;;;;;;;21.17;10.70;;;5.10;99.90;;;;;;6285196;22;20012;-91
2022/03/20 07:50:54;;;;;;;17.00;10.95;;;5.10;99.90;;;;;;6282088;22;20016;-89
2022/03/20 07:53:23;;;;;;;23.13;11.63;;;5.20;99.90;;;;;;6283047;22;20015;-89
2022/03/20 07:55:50;;;;;;;19.33;11.30;;;5.30;99.90;;;;;;6283490;22;20015;-90
2022/03/20 07:58:19;;;;;;;26.65;10.75;;;5.20;99.90;;;;;;6257460;22;20050;-89
2022/03/20 08:00:47;;;;;;;20.02;12.27;;;5.10;99.90;;;;;;6282442;22;20039;-90
2022/03/20 08:03:15;;;;;;;23.88;12.57;;;5.00;99.90;;;;;;6281705;22;20023;-89
2022/03/20 08:05:43;;;;;;;28.95;11.27;;;5.10;99.90;;;;;;6281590;22;20015;-89
2022/03/20 08:08:14;;;;;;;28.63;12.05;;;5.10;99.90;;;;;;6282129;22;20030;-89
2022/03/20 08:10:42;;;;;;;26.75;12.45;;;5.10;99.90;;;;;;6281825;22;20053;-90
2022/03/20 08:13:13;;;;;;;21.85;11.40;;;5.00;99.90;;;;;;6282357;22;20069;-90
2022/03/20 08:15:40;;;;;;;18.27;9.40;;;5.10;99.90;;;;;;6282390;22;20031;-90
2022/03/20 08:18:07;;;;;;;21.75;10.05;;;5.30;99.90;;;;;;6281989;22;20022;-90
2022/03/20 08:20:35;;;;;;;28.27;13.85;;;5.30;99.90;;;;;;6282006;22;20011;-90
2022/03/20 08:23:04;;;;;;;19.48;11.05;;;5.20;99.90;;;;;;6256448;22;20012;-90
2022/03/20 08:25:31;;;;;;;21.42;11.10;;;5.30;99.90;;;;;;6309529;22;20426;-90
2022/03/20 08:27:58;;;;;;;20.10;12.43;;;5.20;99.90;;;;;;6257057;22;20019;-89
2022/03/20 08:30:25;;;;;;;20.88;12.20;;;5.30;99.90;;;;;;6282164;22;20072;-90
2022/03/20 08:32:53;;;;;;;25.20;13.48;;;5.40;99.90;;;;;;6256358;22;20415;-90
2022/03/20 08:35:21;;;;;;;21.50;12.52;;;5.30;99.90;;;;;;6281663;22;20023;-90
2022/03/20 08:37:55;;;;;;;23.55;13.15;;;5.30;99.90;;;;;;6282408;22;20338;-90
2022/03/20 08:40:22;;;;;;;;;;;5.20;99.90;;;;;;6257465;22;20019;-90
2022/03/20 08:42:54;;;;;;;28.60;11.70;;;5.40;99.90;;;;;;6256977;22;19921;-90
2022/03/20 08:45:33;;;;;;;22.20;13.65;;;5.60;99.90;;;;;;6281887;22;20086;-91
2022/03/20 08:48:04;;;;;;;25.38;13.10;;;5.50;99.90;;;;;;6283954;22;20015;-90
2022/03/20 08:50:34;;;;;;;26.13;14.02;;;5.50;99.90;;;;;;6283033;22;20019;-89
2022/03/20 08:53:12;;;;;;;21.33;12.35;;;5.60;99.90;;;;;;6283282;22;20801;-90
2022/03/20 08:55:47;;;;;;;22.90;13.48;;;5.70;99.90;;;;;;6308947;22;20021;-89
2022/03/20 08:58:16;;;;;;;23.35;12.45;;;5.70;99.90;;;;;;6282629;22;20030;-89
2022/03/20 09:00:44;;;;;;;26.90;12.45;;;5.70;99.90;;;;;;6282599;22;20015;-90
2022/03/20 09:03:13;;;;;;;30.15;13.77;;;5.70;99.90;;;;;;6256304;22;20015;-89
2022/03/20 09:05:40;;;;;;;24.65;13.30;;;5.60;99.90;;;;;;6281702;22;20015;-89
2022/03/20 09:08:08;;;;;;;24.77;13.68;;;5.60;99.90;;;;;;6282198;22;20023;-89
2022/03/20 09:10:36;;;;;;;20.02;11.77;;;5.80;99.90;;;;;;6315997;22;20026;-89
2022/03/20 09:13:03;;;;;;;21.83;11.25;;;5.90;99.90;;;;;;6306355;22;20012;-89
2022/03/20 09:15:31;;;;;;;26.48;13.80;;;6.00;99.90;;;;;;6300844;22;20111;-89
2022/03/20 09:20:46;;;;;;;28.40;13.70;;;6.00;99.90;;;;;;6286970;22;20328;-89
2022/03/20 09:23:16;;;;;;;21.70;12.02;;;6.00;99.90;;;;;;6286166;22;20409;-89
2022/03/20 09:25:46;;;;;;;26.65;13.88;;;6.10;99.90;;;;;;6282871;22;20011;-89
2022/03/20 09:28:16;;;;;;;29.92;15.30;;;6.20;99.90;;;;;;6310838;22;20046;-90
2022/03/20 09:30:44;;;;;;;28.00;15.30;;;6.10;99.90;;;;;;6258671;22;20023;-90
2022/03/20 09:33:11;;;;;;;28.33;16.08;;;6.20;99.90;;;;;;6283211;22;20106;-89
2022/03/20 09:35:39;;;;;;;22.35;12.00;;;6.10;99.90;;;;;;6283764;22;20469;-90
2022/03/20 09:38:09;;;;;;;26.92;13.82;;;6.20;99.90;;;;;;6256432;22;20011;-90
2022/03/20 09:40:38;;;;;;;25.48;13.20;;;6.30;99.90;;;;;;6280921;22;20357;-90
2022/03/20 09:43:06;;;;;;;20.73;11.70;;;6.30;99.90;;;;;;6281808;22;20084;-87
2022/03/20 09:45:34;;;;;;;31.40;13.63;;;6.40;99.90;;;;;;6281584;22;20023;-88
2022/03/20 09:48:03;;;;;;;29.70;15.98;;;6.50;99.90;;;;;;6281701;22;20023;-89
2022/03/20 09:50:31;;;;;;;30.95;15.73;;;6.50;99.90;;;;;;6280960;22;20343;-87
2022/03/20 09:52:58;;;;;;;27.30;14.48;;;6.40;99.90;;;;;;6281518;22;20088;-88
2022/03/20 09:55:26;;;;;;;27.05;13.30;;;6.50;99.90;;;;;;6280678;22;20355;-89
2022/03/20 09:57:59;;;;;;;32.08;15.07;;;6.60;99.90;;;;;;6255725;22;20016;-88
2022/03/20 10:00:30;;;;;;;29.77;15.43;;;6.70;99.90;;;;;;6281515;22;20019;-88
2022/03/20 10:02:58;;;;;;;30.92;14.75;;;6.60;99.90;;;;;;6281755;22;20018;-88
2022/03/20 10:05:26;;;;;;;26.30;13.40;;;6.70;99.90;;;;;;6308289;22;20007;-90
2022/03/20 10:08:07;;;;;;;27.50;13.10;;;6.80;99.90;;;;;;6281032;22;20049;-92
2022/03/20 10:10:35;;;;;;;26.23;13.45;;;6.80;99.90;;;;;;6308518;22;20065;-89
2022/03/20 10:13:13;;;;;;;24.65;13.80;;;6.70;99.90;;;;;;6255322;22;20031;-90
2022/03/20 10:15:43;;;;;;;29.65;14.30;;;6.80;99.90;;;;;;6309359;22;20094;-89
2022/03/20 10:18:23;;;;;;;28.15;14.80;;;6.90;99.90;;;;;;6256301;22;20015;-89
2022/03/20 10:21:00;;;;;;;22.92;12.60;;;7.00;99.90;;;;;;6280649;22;20011;-88
2022/03/20 10:23:37;;;;;;;25.83;14.77;;;7.10;99.90;;;;;;6281094;22;20113;-89
2022/03/20 10:26:07;;;;;;;27.30;14.55;;;7.00;99.90;;;;;;6280865;22;20110;-88
2022/03/20 10:28:45;;;;;;;32.92;15.43;;;7.10;99.90;;;;;;6282201;22;20023;-90
2022/03/20 10:34:52;;;;;;;24.95;13.48;;;7.20;99.90;;;;;;6282774;22;20097;-91
2022/03/20 10:37:41;;;;;;;28.35;14.63;;;7.20;99.90;;;;;;6309660;22;20042;-91
2022/03/20 10:40:10;;;;;;;30.65;15.68;;;7.40;99.90;;;;;;6257241;22;20015;-92
2022/03/20 10:42:40;;;;;;;27.23;15.35;;;7.30;99.90;;;;;;6308003;22;20021;-91
2022/03/20 10:45:34;;;;;;;25.42;14.90;;;7.50;99.90;;;;;;6308665;22;20015;-92
2022/03/20 10:48:17;;;;;;;28.80;14.93;;;7.40;84.40;;;;;;6248489;22;20027;-95
2022/03/20 10:51:02;;;;;;;26.67;13.95;;;7.50;64.80;;;;;;6308575;22;20020;-93
2022/03/20 10:54:21;;;;;;;22.63;14.02;;;7.50;72.40;;;;;;6257007;22;20015;-93
2022/03/20 10:57:17;;;;;;;26.85;14.43;;;7.70;93.40;;;;;;6283474;22;20023;-92
2022/03/20 11:00:18;;;;;;;21.55;13.52;;;7.60;37.20;;;;;;6281789;22;20022;-92
2022/03/20 11:35:30;;;;;;;26.90;15.40;;;8.40;7.70;;;;;;6310392;22;20699;-90
2022/03/20 11:38:35;;;;;;;26.42;14.23;;;8.60;7.90;;;;;;6285075;22;20477;-92
2022/03/20 11:44:59;;;;;;;26.52;14.43;;;8.80;10.30;;;;;;6282730;22;20101;-90
2022/03/20 11:50:52;;;;;;;24.05;13.88;;;9.00;8.70;;;;;;6282847;22;20081;-95
2022/03/20 11:53:27;;;;;;;27.08;15.20;;;9.20;6.00;;;;;;6306388;22;20349;-92
2022/03/20 11:55:57;;;;;;;31.60;16.52;;;9.20;5.80;;;;;;6286726;22;20019;-91
2022/03/20 11:58:36;;;;;;;27.83;14.90;;;9.10;8.50;;;;;;6233728;22;20011;-89
2022/03/20 12:01:09;;;;;;;30.42;17.45;;;9.00;2.20;;;;;;6309587;22;20038;-89
2022/03/20 12:03:43;;;;;;;31.83;15.98;;;9.10;15.80;;;;;;6283229;22;20016;-92
2022/03/20 12:06:30;;;;;;;28.20;16.08;;;9.10;2.00;;;;;;6282647;22;20019;-92
2022/03/20 12:09:18;;;;;;;31.08;18.10;;;9.10;1.00;;;;;;6309907;22;20022;-90
2022/03/20 12:12:33;;;;;;;27.05;14.85;;;9.10;1.00;;;;;;6282755;22;20500;-91
2022/03/20 12:15:08;;;;;;;28.17;16.35;;;9.10;2.50;;;;;;6282442;22;20395;-90
2022/03/20 12:18:08;;;;;;;25.98;14.65;;;9.20;8.70;;;;;;6231787;22;20015;-90
2022/03/20 12:20:53;;;;;;;26.20;13.45;;;9.30;18.00;;;;;;6281940;22;20020;-87
2022/03/20 12:23:43;;;;;;;26.10;12.98;;;9.40;8.60;;;;;;6257443;22;20025;-94
2022/03/20 12:26:43;;;;;;;26.02;14.30;;;9.20;10.10;;;;;;6270142;22;20558;-93
2022/03/20 12:29:32;;;;;;;27.23;16.23;;;9.20;1.00;;;;;;6257706;22;20030;-94
2022/03/20 12:32:02;;;;;;;25.90;16.02;;;9.10;1.00;;;;;;6282810;22;20092;-92
2022/03/20 12:34:33;;;;;;;26.45;14.45;;;9.00;1.00;;;;;;6257137;22;20015;-90
2022/03/20 12:37:38;;;;;;;22.40;14.15;;;9.10;2.70;;;;;;6257220;22;20061;-93
2022/03/20 12:40:11;;;;;;;30.48;15.95;;;9.40;17.60;;;;;;6282829;22;20053;-93
2022/03/20 12:43:13;;;;;;;31.05;15.27;;;9.20;6.90;;;;;;6262581;22;20068;-92
2022/03/20 12:45:45;;;;;;;25.30;14.57;;;9.20;3.70;;;;;;6311253;22;20030;-92
2022/03/20 12:48:25;;;;;;;25.88;14.88;;;9.00;3.50;;;;;;6284087;22;20019;-95
2022/03/20 12:51:03;;;;;;;28.88;16.38;;;9.20;13.90;;;;;;6257530;22;20019;-93
2022/03/20 12:53:46;;;;;;;28.15;15.98;;;9.10;6.70;;;;;;6258448;22;20094;-93
2022/03/20 12:58:41;;;;;;;24.90;14.48;;;8.90;11.40;;;;;;6309411;22;20019;-92
2022/03/20 13:01:10;;;;;;;26.83;15.77;;;9.10;16.10;;;;;;6256207;22;20039;-93
2022/03/20 13:03:37;;;;;;;26.45;14.38;;;9.10;16.60;;;;;;6309049;22;20015;-93
2022/03/20 13:06:04;;;;;;;27.73;16.08;;;9.00;9.80;;;;;;6281815;22;20319;-92
2022/03/20 13:08:44;;;;;;;29.52;16.55;;;9.00;3.50;;;;;;6257081;22;20019;-92
2022/03/20 13:14:14;;;;;;;31.17;16.15;;;8.90;6.60;;;;;;6282197;22;20019;-89
2022/03/20 13:16:50;;;;;;;28.40;15.57;;;8.80;10.00;;;;;;6282531;22;20030;-93
2022/03/20 13:19:34;;;;;;;29.70;16.90;;;8.60;8.20;;;;;;6281430;22;20441;-92
2022/03/20 13:22:05;;;;;;;24.13;14.57;;;8.60;19.90;;;;;;6280965;22;20016;-91
2022/03/20 13:24:35;;;;;;;32.10;17.60;;;8.90;30.00;;;;;;6281668;22;20026;-92
2022/03/20 13:27:05;;;;;;;35.17;17.48;;;8.60;13.40;;;;;;6281302;22;20425;-92
2022/03/20 13:29:32;;;;;;;30.92;18.15;;;8.80;21.30;;;;;;6281423;22;20019;-90
2022/03/20 13:32:01;;;;;;;28.23;17.15;;;8.70;8.40;;;;;;6255701;22;20023;-92
2022/03/20 13:34:30;;;;;;;29.85;15.80;;;8.80;20.20;;;;;;6281703;22;20077;-90
2022/03/20 13:37:06;;;;;;;30.52;16.17;;;8.80;8.50;;;;;;6256232;22;20118;-93
2022/03/20 13:39:34;;;;;;;25.75;16.35;;;9.10;15.20;;;;;;6281549;22;20015;-90
2022/03/20 13:42:21;;;;;;;27.92;15.93;;;8.90;8.60;;;;;;6308983;22;20073;-90
2022/03/20 13:44:52;;;;;;;30.90;18.42;;;9.20;21.90;;;;;;6281606;22;20015;-90
2022/03/20 13:47:20;;;;;;;32.28;18.75;;;9.00;3.40;;;;;;6282051;22;20011;-91
2022/03/20 13:49:48;;;;;;;31.02;16.80;;;8.80;6.50;;;;;;6255682;22;20019;-91
2022/03/20 13:52:25;;;;;;;31.13;16.50;;;9.10;8.70;;;;;;6280827;22;20495;-90
2022/03/20 13:55:18;;;;;;;30.77;18.05;;;9.20;14.30;;;;;;6308708;22;20043;-91
2022/03/20 13:57:56;;;;;;;29.55;16.83;;;9.40;5.10;;;;;;6255131;22;20054;-90
2022/03/20 14:00:39;;;;;;;33.10;17.20;;;9.50;14.40;;;;;;6281058;22;20016;-89
2022/03/20 14:03:07;;;;;;;30.92;17.38;;;9.50;10.60;;;;;;6281441;22;20061;-90
2022/03/20 14:05:35;;;;;;;29.35;16.60;;;9.50;5.40;;;;;;6281233;22;20498;-91
2022/03/20 14:08:19;;;;;;;30.60;17.65;;;9.50;9.00;;;;;;6280978;22;20053;-91
2022/03/20 14:10:56;;;;;;;31.20;16.67;;;9.50;6.80;;;;;;6281129;22;20019;-94
2022/03/20 14:13:31;;;;;;;25.92;14.52;;;9.50;10.90;;;;;;6230765;22;20110;-90
2022/03/20 14:16:02;;;;;;;25.80;14.93;;;9.70;18.30;;;;;;6280773;22;20050;-92
2022/03/20 14:18:31;;;;;;;32.15;17.77;;;9.80;14.20;;;;;;6280870;22;20020;-93
2022/03/20 14:21:09;;;;;;;33.05;15.57;;;9.80;7.50;;;;;;6281490;22;20016;-93
2022/03/20 14:23:58;;;;;;;30.08;17.05;;;9.70;3.10;;;;;;6281238;22;20015;-92
2022/03/20 14:26:31;;;;;;;29.10;16.17;;;9.70;8.80;;;;;;6256345;22;20024;-90
2022/03/20 14:29:06;;;;;;;32.35;17.58;;;9.80;9.50;;;;;;6255089;22;20102;-93
2022/03/20 14:40:14;;;;;;;23.00;13.73;;;9.70;1.00;;;;;;6260072;22;20025;-92
2022/03/20 14:42:45;;;;;;;29.60;16.13;;;9.80;16.70;;;;;;6255776;22;20023;-92
2022/03/20 14:45:15;;;;;;;27.20;14.85;;;9.80;12.00;;;;;;6255396;22;20023;-90